Morton S Bouchard Jr — WSE9678 — position and weather

sailwx.info

Track history (hours):
 
Tides and Currents Weather Stations Pressure Air Temp Water Temp Dewpoint Dewpoint Depression Visibility Wind Speed Wind Dir Waves Ship Positions

Morton S Bouchard Jr

Owner: BOUCHARD TRANSPORTATION CO INC, MELVILLE, NY. More information available from US FCC via Universal Licensing System and Coast Guard Vessel Documentation Center.

Last reported at 2014-Oct-31 13:34 UTC. Time now 2014-Oct-31 14:30 UTC.
Position N 40°39' W 074°10'.

Length 33 m; draft 6 m.

Type: Tug. MMSI: 367006550.

Date/timePositionNaut miles runAvg speedWind from/ knotsBaromVisibWave heightAir tempDewpointWater temp
2014-Oct-31 13:34N 40°39' W 074°10'2 2.2
2014-Oct-31 12:33N 40°39' W 074°07'0 0.0
2014-Oct-31 11:33N 40°39' W 074°07'0 0.0
2014-Oct-31 10:34N 40°39' W 074°07'0 0.0
2014-Oct-31 09:33N 40°39' W 074°07'0 0.0
2014-Oct-31 08:33N 40°39' W 074°07'4 4.4
2014-Oct-31 07:32N 40°36' W 074°12'1 1.2
2014-Oct-31 06:32N 40°35' W 074°12'2 2.0
2014-Oct-31 05:33N 40°37' W 074°12'6 5.8
2014-Oct-31 04:34N 40°39' W 074°05'8 8.5
2014-Oct-31 03:34N 40°47' W 074°00'1 0.0
2014-Oct-29 15:33N 40°46' W 074°00'8 8.0
2014-Oct-29 14:34N 40°39' W 074°05'6 5.6
2014-Oct-29 13:33N 40°37' W 074°12'2 0.1
2014-Oct-29 01:11N 40°35' W 074°12'0 0.5
2014-Oct-29 00:33N 40°35' W 074°13'5 4.8
2014-Oct-28 23:33N 40°39' W 074°08'5 4.9
2014-Oct-28 22:34N 40°40' W 074°02'0 0.0
2014-Oct-28 21:33N 40°40' W 074°02'0 0.0
2014-Oct-28 20:33N 40°40' W 074°02'0 0.0
2014-Oct-28 19:33N 40°40' W 074°02'0 0.0
2014-Oct-28 18:34N 40°40' W 074°02'0 0.1
2014-Oct-28 17:33N 40°40' W 074°02'0 0.1
2014-Oct-28 16:33N 40°40' W 074°02'0 0.0
2014-Oct-28 15:34N 40°40' W 074°02'0 0.0
2014-Oct-28 14:34N 40°40' W 074°02'0 0.0
2014-Oct-28 13:33N 40°40' W 074°02'0 0.0
2014-Oct-28 12:33N 40°40' W 074°02'0 0.0
2014-Oct-28 11:34N 40°40' W 074°02'0 0.1
2014-Oct-28 10:34N 40°40' W 074°02'0 0.0
2014-Oct-28 09:34N 40°40' W 074°02'0 0.0
2014-Oct-28 08:33N 40°40' W 074°02'0 0.0
2014-Oct-28 07:33N 40°40' W 074°02'0 0.0
2014-Oct-28 06:33N 40°40' W 074°02'0 0.1
2014-Oct-28 05:34N 40°40' W 074°02'0 0.0
2014-Oct-28 04:34N 40°40' W 074°02'0 0.0
2014-Oct-28 03:34N 40°40' W 074°02'4 3.6
2014-Oct-28 02:34N 40°39' W 074°07'3 2.7
2014-Oct-28 01:33N 40°39' W 074°03'1 1.0
2014-Oct-28 00:33N 40°40' W 074°02'0 0.1
2014-Oct-27 23:33N 40°40' W 074°02'0 0.1
2014-Oct-27 22:34N 40°40' W 074°02'0 0.0
2014-Oct-27 21:34N 40°40' W 074°02'0 0.0
2014-Oct-27 20:33N 40°40' W 074°02'0 0.0
2014-Oct-27 19:33N 40°40' W 074°02'0 0.0
2014-Oct-27 18:34N 40°40' W 074°02'0 0.0
2014-Oct-27 17:33N 40°40' W 074°02'0 0.0
2014-Oct-27 16:34N 40°40' W 074°02'0 0.0
2014-Oct-27 15:33N 40°40' W 074°02'0 0.0
2014-Oct-27 14:34N 40°40' W 074°02'0 0.0
2014-Oct-27 13:34N 40°40' W 074°02'0 0.0
2014-Oct-27 12:33N 40°40' W 074°02'0 0.0
2014-Oct-27 11:34N 40°40' W 074°02'0 0.0
2014-Oct-27 10:34N 40°40' W 074°02'0 0.0
2014-Oct-27 09:34N 40°40' W 074°02'0 0.0
2014-Oct-27 08:34N 40°40' W 074°02'0 0.0
2014-Oct-27 07:33N 40°40' W 074°02'0 0.0
2014-Oct-27 06:34N 40°40' W 074°02'0 0.0
2014-Oct-27 05:34N 40°40' W 074°02'4 3.8
2014-Oct-27 04:34N 40°39' W 074°07'0 0.1
2014-Oct-27 03:33N 40°39' W 074°07'0 0.0
2014-Oct-27 02:34N 40°39' W 074°07'0 0.0
2014-Oct-27 01:33N 40°39' W 074°07'0 0.0
2014-Oct-27 00:34N 40°39' W 074°07'0 0.0
2014-Oct-26 23:33N 40°39' W 074°07'0 0.0
2014-Oct-26 22:34N 40°39' W 074°07'0 0.0
2014-Oct-26 21:33N 40°39' W 074°07'0 0.0
2014-Oct-26 20:34N 40°39' W 074°07'0 0.0
2014-Oct-26 19:34N 40°39' W 074°07'0 0.0
2014-Oct-26 18:33N 40°39' W 074°07'0 0.0
2014-Oct-26 17:34N 40°39' W 074°07'0 0.0
2014-Oct-26 16:33N 40°39' W 074°07'0 0.0
2014-Oct-26 15:33N 40°39' W 074°07'0 0.0
2014-Oct-26 14:34N 40°39' W 074°07'0 0.0
2014-Oct-26 13:34N 40°39' W 074°07'0 0.0
2014-Oct-26 12:34N 40°39' W 074°07'0 0.0
2014-Oct-26 11:34N 40°39' W 074°07'2 1.9
2014-Oct-26 10:34N 40°39' W 074°09'7 3.4
2014-Oct-26 08:23N 40°33' W 074°15'0 0.1
2014-Oct-26 06:32N 40°33' W 074°15'7 7.2
2014-Oct-26 05:33N 40°39' W 074°11'3 3.0
2014-Oct-26 04:34N 40°39' W 074°07'0 0.0
2014-Oct-26 03:34N 40°39' W 074°07'0 0.0
2014-Oct-26 02:34N 40°39' W 074°07'0 0.0
2014-Oct-26 01:34N 40°39' W 074°07'0 0.0
2014-Oct-26 00:34N 40°39' W 074°07'0 0.0
2014-Oct-25 23:34N 40°39' W 074°07'0 0.0
2014-Oct-25 22:33N 40°39' W 074°07'0 0.0
2014-Oct-25 21:33N 40°39' W 074°07'0 0.0
2014-Oct-25 20:25N 40°39' W 074°07'0 0.1
2014-Oct-25 19:34N 40°39' W 074°07'2 1.6
2014-Oct-25 18:33N 40°39' W 074°05'9 9.2
2014-Oct-25 17:34N 40°46' W 073°57'3 3.0
2014-Oct-25 16:33N 40°48' W 073°54'0 0.0
2014-Oct-25 15:33N 40°48' W 073°54'0 0.0
2014-Oct-25 14:33N 40°48' W 073°54'0 0.0
2014-Oct-25 13:33N 40°48' W 073°54'0 0.0
2014-Oct-25 12:33N 40°48' W 073°54'0 0.0
2014-Oct-25 11:33N 40°48' W 073°54'0 0.0
2014-Oct-25 10:33N 40°48' W 073°54'0 0.0
2014-Oct-25 09:33N 40°48' W 073°54'3 2.5
2014-Oct-25 08:33N 40°46' W 073°57'4 4.0
2014-Oct-25 07:34N 40°43' W 073°58'5 4.7
2014-Oct-25 06:34N 40°40' W 074°03'6 6.3
2014-Oct-25 05:33N 40°39' W 074°11'1 1.0
2014-Oct-25 04:34N 40°39' W 074°10'2 2.2
2014-Oct-25 03:33N 40°39' W 074°07'0 0.0
2014-Oct-25 02:34N 40°39' W 074°07'0 0.0
2014-Oct-25 01:33N 40°39' W 074°07'0 0.0
2014-Oct-25 00:34N 40°39' W 074°07'0 0.0
2014-Oct-24 23:33N 40°39' W 074°07'0 0.0
2014-Oct-24 22:33N 40°39' W 074°07'0 0.0
2014-Oct-24 21:33N 40°39' W 074°07'0 0.0
2014-Oct-24 20:33N 40°39' W 074°07'0 0.0
2014-Oct-24 19:33N 40°39' W 074°07'0 0.0
2014-Oct-24 18:34N 40°39' W 074°07'0 0.0
2014-Oct-24 17:32N 40°39' W 074°07'4 3.8
2014-Oct-24 16:28N 40°38' W 074°12'5 4.9
2014-Oct-24 15:33N 40°39' W 074°07'8 8.1
2014-Oct-24 14:34N 40°44' W 073°58'6 5.6
2014-Oct-24 13:32N 40°48' W 073°53'20 6.7
2014-Oct-24 10:33N 40°60' W 073°32'9 9.1
2014-Oct-24 09:33N 41°03' W 073°20'9 9.0
2014-Oct-24 08:32N 41°06' W 073°09'9 8.7
2014-Oct-24 07:33N 41°11' W 073°00'8 7.6
2014-Oct-24 06:33N 41°17' W 072°55'0 0.2
2014-Oct-24 05:15N 41°18' W 072°54'0 0.0
2014-Oct-23 22:33N 41°17' W 072°55'6 6.5
2014-Oct-23 21:33N 41°12' W 072°59'8 8.0
2014-Oct-23 20:33N 41°07' W 073°07'8 8.4
2014-Oct-23 19:33N 41°04' W 073°17'11 9.1
2014-Oct-23 18:22N 41°00' W 073°31'10 8.6
2014-Oct-23 17:12N 40°55' W 073°42'7 0.9
2014-Oct-23 09:25N 40°49' W 073°47'0 0.0
2014-Oct-23 06:32N 40°49' W 073°47'0 0.0
2014-Oct-22 20:31N 40°49' W 073°47'0 0.0
2014-Oct-22 18:26N 40°49' W 073°47'0 0.0
2014-Oct-22 17:32N 40°49' W 073°47'0 0.0
2014-Oct-22 16:23N 40°49' W 073°47'0 0.0
2014-Oct-22 13:30N 40°49' W 073°47'0 0.0
2014-Oct-22 12:23N 40°49' W 073°47'0 0.0
2014-Oct-22 11:32N 40°49' W 073°47'0 0.1
2014-Oct-22 10:27N 40°49' W 073°47'2 1.0
2014-Oct-22 08:33N 40°48' W 073°49'8 7.9
2014-Oct-22 07:34N 40°45' W 073°58'6 6.0
2014-Oct-22 06:34N 40°40' W 074°03'1 0.7
2014-Oct-22 05:34N 40°39' W 074°03'0 0.0
2014-Oct-22 04:34N 40°39' W 074°03'0 0.0
2014-Oct-22 03:33N 40°39' W 074°03'0 0.1
2014-Oct-22 02:34N 40°39' W 074°03'0 0.2
2014-Oct-22 01:34N 40°39' W 074°03'0 0.1
2014-Oct-22 00:33N 40°39' W 074°03'0 0.1
2014-Oct-21 23:33N 40°39' W 074°03'0 0.0
2014-Oct-21 22:33N 40°39' W 074°03'0 0.1
2014-Oct-21 21:33N 40°39' W 074°03'0 0.2
2014-Oct-21 20:33N 40°39' W 074°03'0 0.1
2014-Oct-21 19:33N 40°39' W 074°03'0 0.0
2014-Oct-21 18:34N 40°39' W 074°03'3 3.3
2014-Oct-21 17:33N 40°39' W 074°07'2 1.7
2014-Oct-21 16:33N 40°38' W 074°09'0 0.2
2014-Oct-21 15:34N 40°38' W 074°09'0 0.0
2014-Oct-21 14:33N 40°38' W 074°09'  
Track history (hours):
 
Tides and Currents Weather Stations Pressure Air Temp Water Temp Dewpoint Dewpoint Depression Visibility Wind Speed Wind Dir Waves Ship Positions

Morton S Bouchard Jr

Owner: BOUCHARD TRANSPORTATION CO INC, MELVILLE, NY. More information available from US FCC via Universal Licensing System and Coast Guard Vessel Documentation Center.

Last reported at 2014-Oct-31 13:34 UTC. Time now 2014-Oct-31 14:30 UTC.
Position N 40°39' W 074°10'.

Length 33 m; draft 6 m.

Type: Tug. MMSI: 367006550.

Date/timePositionNaut miles runAvg speedWind from/ knotsBaromVisibWave heightAir tempDewpointWater temp
2014-Oct-31 13:34N 40°39' W 074°10'2 2.2
2014-Oct-31 12:33N 40°39' W 074°07'0 0.0
2014-Oct-31 11:33N 40°39' W 074°07'0 0.0
2014-Oct-31 10:34N 40°39' W 074°07'0 0.0
2014-Oct-31 09:33N 40°39' W 074°07'0 0.0
2014-Oct-31 08:33N 40°39' W 074°07'4 4.4
2014-Oct-31 07:32N 40°36' W 074°12'1 1.2
2014-Oct-31 06:32N 40°35' W 074°12'2 2.0
2014-Oct-31 05:33N 40°37' W 074°12'6 5.8
2014-Oct-31 04:34N 40°39' W 074°05'8 8.5
2014-Oct-31 03:34N 40°47' W 074°00'1 0.0
2014-Oct-29 15:33N 40°46' W 074°00'8 8.0
2014-Oct-29 14:34N 40°39' W 074°05'6 5.6
2014-Oct-29 13:33N 40°37' W 074°12'2 0.1
2014-Oct-29 01:11N 40°35' W 074°12'0 0.5
2014-Oct-29 00:33N 40°35' W 074°13'5 4.8
2014-Oct-28 23:33N 40°39' W 074°08'5 4.9
2014-Oct-28 22:34N 40°40' W 074°02'0 0.0
2014-Oct-28 21:33N 40°40' W 074°02'0 0.0
2014-Oct-28 20:33N 40°40' W 074°02'0 0.0
2014-Oct-28 19:33N 40°40' W 074°02'0 0.0
2014-Oct-28 18:34N 40°40' W 074°02'0 0.1
2014-Oct-28 17:33N 40°40' W 074°02'0 0.1
2014-Oct-28 16:33N 40°40' W 074°02'0 0.0
2014-Oct-28 15:34N 40°40' W 074°02'0 0.0
2014-Oct-28 14:34N 40°40' W 074°02'0 0.0
2014-Oct-28 13:33N 40°40' W 074°02'0 0.0
2014-Oct-28 12:33N 40°40' W 074°02'0 0.0
2014-Oct-28 11:34N 40°40' W 074°02'0 0.1
2014-Oct-28 10:34N 40°40' W 074°02'0 0.0
2014-Oct-28 09:34N 40°40' W 074°02'0 0.0
2014-Oct-28 08:33N 40°40' W 074°02'0 0.0
2014-Oct-28 07:33N 40°40' W 074°02'0 0.0
2014-Oct-28 06:33N 40°40' W 074°02'0 0.1
2014-Oct-28 05:34N 40°40' W 074°02'0 0.0
2014-Oct-28 04:34N 40°40' W 074°02'0 0.0
2014-Oct-28 03:34N 40°40' W 074°02'4 3.6
2014-Oct-28 02:34N 40°39' W 074°07'3 2.7
2014-Oct-28 01:33N 40°39' W 074°03'1 1.0
2014-Oct-28 00:33N 40°40' W 074°02'0 0.1
2014-Oct-27 23:33N 40°40' W 074°02'0 0.1
2014-Oct-27 22:34N 40°40' W 074°02'0 0.0
2014-Oct-27 21:34N 40°40' W 074°02'0 0.0
2014-Oct-27 20:33N 40°40' W 074°02'0 0.0
2014-Oct-27 19:33N 40°40' W 074°02'0 0.0
2014-Oct-27 18:34N 40°40' W 074°02'0 0.0
2014-Oct-27 17:33N 40°40' W 074°02'0 0.0
2014-Oct-27 16:34N 40°40' W 074°02'0 0.0
2014-Oct-27 15:33N 40°40' W 074°02'0 0.0
2014-Oct-27 14:34N 40°40' W 074°02'0 0.0
2014-Oct-27 13:34N 40°40' W 074°02'0 0.0
2014-Oct-27 12:33N 40°40' W 074°02'0 0.0
2014-Oct-27 11:34N 40°40' W 074°02'0 0.0
2014-Oct-27 10:34N 40°40' W 074°02'0 0.0
2014-Oct-27 09:34N 40°40' W 074°02'0 0.0
2014-Oct-27 08:34N 40°40' W 074°02'0 0.0
2014-Oct-27 07:33N 40°40' W 074°02'0 0.0
2014-Oct-27 06:34N 40°40' W 074°02'0 0.0
2014-Oct-27 05:34N 40°40' W 074°02'4 3.8
2014-Oct-27 04:34N 40°39' W 074°07'0 0.1
2014-Oct-27 03:33N 40°39' W 074°07'0 0.0
2014-Oct-27 02:34N 40°39' W 074°07'0 0.0
2014-Oct-27 01:33N 40°39' W 074°07'0 0.0
2014-Oct-27 00:34N 40°39' W 074°07'0 0.0
2014-Oct-26 23:33N 40°39' W 074°07'0 0.0
2014-Oct-26 22:34N 40°39' W 074°07'0 0.0
2014-Oct-26 21:33N 40°39' W 074°07'0 0.0
2014-Oct-26 20:34N 40°39' W 074°07'0 0.0
2014-Oct-26 19:34N 40°39' W 074°07'0 0.0
2014-Oct-26 18:33N 40°39' W 074°07'0 0.0
2014-Oct-26 17:34N 40°39' W 074°07'0 0.0
2014-Oct-26 16:33N 40°39' W 074°07'0 0.0
2014-Oct-26 15:33N 40°39' W 074°07'0 0.0
2014-Oct-26 14:34N 40°39' W 074°07'0 0.0
2014-Oct-26 13:34N 40°39' W 074°07'0 0.0
2014-Oct-26 12:34N 40°39' W 074°07'0 0.0
2014-Oct-26 11:34N 40°39' W 074°07'2 1.9
2014-Oct-26 10:34N 40°39' W 074°09'7 3.4
2014-Oct-26 08:23N 40°33' W 074°15'0 0.1
2014-Oct-26 06:32N 40°33' W 074°15'7 7.2
2014-Oct-26 05:33N 40°39' W 074°11'3 3.0
2014-Oct-26 04:34N 40°39' W 074°07'0 0.0
2014-Oct-26 03:34N 40°39' W 074°07'0 0.0
2014-Oct-26 02:34N 40°39' W 074°07'0 0.0
2014-Oct-26 01:34N 40°39' W 074°07'0 0.0
2014-Oct-26 00:34N 40°39' W 074°07'0 0.0
2014-Oct-25 23:34N 40°39' W 074°07'0 0.0
2014-Oct-25 22:33N 40°39' W 074°07'0 0.0
2014-Oct-25 21:33N 40°39' W 074°07'0 0.0
2014-Oct-25 20:25N 40°39' W 074°07'0 0.1
2014-Oct-25 19:34N 40°39' W 074°07'2 1.6
2014-Oct-25 18:33N 40°39' W 074°05'9 9.2
2014-Oct-25 17:34N 40°46' W 073°57'3 3.0
2014-Oct-25 16:33N 40°48' W 073°54'0 0.0
2014-Oct-25 15:33N 40°48' W 073°54'0 0.0
2014-Oct-25 14:33N 40°48' W 073°54'0 0.0
2014-Oct-25 13:33N 40°48' W 073°54'0 0.0
2014-Oct-25 12:33N 40°48' W 073°54'0 0.0
2014-Oct-25 11:33N 40°48' W 073°54'0 0.0
2014-Oct-25 10:33N 40°48' W 073°54'0 0.0
2014-Oct-25 09:33N 40°48' W 073°54'3 2.5
2014-Oct-25 08:33N 40°46' W 073°57'4 4.0
2014-Oct-25 07:34N 40°43' W 073°58'5 4.7
2014-Oct-25 06:34N 40°40' W 074°03'6 6.3
2014-Oct-25 05:33N 40°39' W 074°11'1 1.0
2014-Oct-25 04:34N 40°39' W 074°10'2 2.2
2014-Oct-25 03:33N 40°39' W 074°07'0 0.0
2014-Oct-25 02:34N 40°39' W 074°07'0 0.0
2014-Oct-25 01:33N 40°39' W 074°07'0 0.0
2014-Oct-25 00:34N 40°39' W 074°07'0 0.0
2014-Oct-24 23:33N 40°39' W 074°07'0 0.0
2014-Oct-24 22:33N 40°39' W 074°07'0 0.0
2014-Oct-24 21:33N 40°39' W 074°07'0 0.0
2014-Oct-24 20:33N 40°39' W 074°07'0 0.0
2014-Oct-24 19:33N 40°39' W 074°07'0 0.0
2014-Oct-24 18:34N 40°39' W 074°07'0 0.0
2014-Oct-24 17:32N 40°39' W 074°07'4 3.8
2014-Oct-24 16:28N 40°38' W 074°12'5 4.9
2014-Oct-24 15:33N 40°39' W 074°07'8 8.1
2014-Oct-24 14:34N 40°44' W 073°58'6 5.6
2014-Oct-24 13:32N 40°48' W 073°53'20 6.7
2014-Oct-24 10:33N 40°60' W 073°32'9 9.1
2014-Oct-24 09:33N 41°03' W 073°20'9 9.0
2014-Oct-24 08:32N 41°06' W 073°09'9 8.7
2014-Oct-24 07:33N 41°11' W 073°00'8 7.6
2014-Oct-24 06:33N 41°17' W 072°55'0 0.2
2014-Oct-24 05:15N 41°18' W 072°54'0 0.0
2014-Oct-23 22:33N 41°17' W 072°55'6 6.5
2014-Oct-23 21:33N 41°12' W 072°59'8 8.0
2014-Oct-23 20:33N 41°07' W 073°07'8 8.4
2014-Oct-23 19:33N 41°04' W 073°17'11 9.1
2014-Oct-23 18:22N 41°00' W 073°31'10 8.6
2014-Oct-23 17:12N 40°55' W 073°42'7 0.9
2014-Oct-23 09:25N 40°49' W 073°47'0 0.0
2014-Oct-23 06:32N 40°49' W 073°47'0 0.0
2014-Oct-22 20:31N 40°49' W 073°47'0 0.0
2014-Oct-22 18:26N 40°49' W 073°47'0 0.0
2014-Oct-22 17:32N 40°49' W 073°47'0 0.0
2014-Oct-22 16:23N 40°49' W 073°47'0 0.0
2014-Oct-22 13:30N 40°49' W 073°47'0 0.0
2014-Oct-22 12:23N 40°49' W 073°47'0 0.0
2014-Oct-22 11:32N 40°49' W 073°47'0 0.1
2014-Oct-22 10:27N 40°49' W 073°47'2 1.0
2014-Oct-22 08:33N 40°48' W 073°49'8 7.9
2014-Oct-22 07:34N 40°45' W 073°58'6 6.0
2014-Oct-22 06:34N 40°40' W 074°03'1 0.7
2014-Oct-22 05:34N 40°39' W 074°03'0 0.0
2014-Oct-22 04:34N 40°39' W 074°03'0 0.0
2014-Oct-22 03:33N 40°39' W 074°03'0 0.1
2014-Oct-22 02:34N 40°39' W 074°03'0 0.2
2014-Oct-22 01:34N 40°39' W 074°03'0 0.1
2014-Oct-22 00:33N 40°39' W 074°03'0 0.1
2014-Oct-21 23:33N 40°39' W 074°03'0 0.0
2014-Oct-21 22:33N 40°39' W 074°03'0 0.1
2014-Oct-21 21:33N 40°39' W 074°03'0 0.2
2014-Oct-21 20:33N 40°39' W 074°03'0 0.1
2014-Oct-21 19:33N 40°39' W 074°03'0 0.0
2014-Oct-21 18:34N 40°39' W 074°03'3 3.3
2014-Oct-21 17:33N 40°39' W 074°07'2 1.7
2014-Oct-21 16:33N 40°38' W 074°09'0 0.2
2014-Oct-21 15:34N 40°38' W 074°09'0 0.0
2014-Oct-21 14:33N 40°38' W 074°09'  

Dump ship's entire track history